sensor_id;sensor_type;location;lat;lon;timestamp;P1;durP1;ratioP1;P2;durP2;ratioP2
72720;SDS011;60835;50.974;10.322;2023-05-16T00:01:47;11.25;;;7.95;;
72720;SDS011;60835;50.974;10.322;2023-05-16T00:04:14;11.77;;;8.50;;
72720;SDS011;60835;50.974;10.322;2023-05-16T00:06:40;15.00;;;8.73;;
72720;SDS011;60835;50.974;10.322;2023-05-16T00:09:07;11.95;;;8.35;;
72720;SDS011;60835;50.974;10.322;2023-05-16T00:11:34;17.48;;;9.30;;
72720;SDS011;60835;50.974;10.322;2023-05-16T00:14:01;11.73;;;8.57;;
72720;SDS011;60835;50.974;10.322;2023-05-16T00:16:27;14.35;;;8.63;;
72720;SDS011;60835;50.974;10.322;2023-05-16T00:18:55;14.73;;;8.90;;
72720;SDS011;60835;50.974;10.322;2023-05-16T00:21:26;14.38;;;9.00;;
72720;SDS011;60835;50.974;10.322;2023-05-16T00:23:53;11.88;;;8.75;;
72720;SDS011;60835;50.974;10.322;2023-05-16T00:26:20;14.00;;;9.43;;
72720;SDS011;60835;50.974;10.322;2023-05-16T00:28:47;12.35;;;8.85;;
72720;SDS011;60835;50.974;10.322;2023-05-16T00:31:13;14.25;;;8.98;;
72720;SDS011;60835;50.974;10.322;2023-05-16T00:33:40;11.85;;;8.95;;
72720;SDS011;60835;50.974;10.322;2023-05-16T00:36:07;13.25;;;8.98;;
72720;SDS011;60835;50.974;10.322;2023-05-16T00:38:34;13.43;;;8.60;;
72720;SDS011;60835;50.974;10.322;2023-05-16T00:41:00;11.43;;;9.05;;
72720;SDS011;60835;50.974;10.322;2023-05-16T00:43:27;14.95;;;9.23;;
72720;SDS011;60835;50.974;10.322;2023-05-16T00:45:54;13.02;;;8.70;;
72720;SDS011;60835;50.974;10.322;2023-05-16T00:48:23;12.05;;;9.13;;
72720;SDS011;60835;50.974;10.322;2023-05-16T00:50:50;14.18;;;10.18;;
72720;SDS011;60835;50.974;10.322;2023-05-16T00:53:18;19.45;;;9.93;;
72720;SDS011;60835;50.974;10.322;2023-05-16T00:55:45;17.13;;;9.75;;
72720;SDS011;60835;50.974;10.322;2023-05-16T00:58:12;13.93;;;10.45;;
72720;SDS011;60835;50.974;10.322;2023-05-16T01:00:39;12.32;;;9.00;;
72720;SDS011;60835;50.974;10.322;2023-05-16T01:03:07;12.38;;;9.05;;
72720;SDS011;60835;50.974;10.322;2023-05-16T01:05:34;12.13;;;8.90;;
72720;SDS011;60835;50.974;10.322;2023-05-16T01:08:00;11.82;;;9.35;;
72720;SDS011;60835;50.974;10.322;2023-05-16T01:10:30;15.35;;;9.77;;
72720;SDS011;60835;50.974;10.322;2023-05-16T01:13:10;13.73;;;9.40;;
72720;SDS011;60835;50.974;10.322;2023-05-16T01:15:55;17.63;;;9.30;;
72720;SDS011;60835;50.974;10.322;2023-05-16T01:21:15;13.73;;;10.15;;
72720;SDS011;60835;50.974;10.322;2023-05-16T01:26:39;14.38;;;9.13;;
72720;SDS011;60835;50.974;10.322;2023-05-16T01:29:07;16.77;;;9.48;;
72720;SDS011;60835;50.974;10.322;2023-05-16T01:31:34;11.35;;;9.05;;
72720;SDS011;60835;50.974;10.322;2023-05-16T01:34:01;13.68;;;9.77;;
72720;SDS011;60835;50.974;10.322;2023-05-16T01:42:00;17.58;;;9.95;;
72720;SDS011;60835;50.974;10.322;2023-05-16T01:44:44;15.50;;;10.55;;
72720;SDS011;60835;50.974;10.322;2023-05-16T01:47:16;16.48;;;10.98;;
72720;SDS011;60835;50.974;10.322;2023-05-16T01:49:57;12.57;;;9.45;;
72720;SDS011;60835;50.974;10.322;2023-05-16T01:52:45;17.25;;;10.07;;
72720;SDS011;60835;50.974;10.322;2023-05-16T01:55:22;17.70;;;11.15;;
72720;SDS011;60835;50.974;10.322;2023-05-16T01:57:54;14.60;;;10.50;;
72720;SDS011;60835;50.974;10.322;2023-05-16T02:00:22;14.93;;;10.45;;
72720;SDS011;60835;50.974;10.322;2023-05-16T02:02:48;15.30;;;10.38;;
72720;SDS011;60835;50.974;10.322;2023-05-16T02:05:15;17.65;;;10.85;;
72720;SDS011;60835;50.974;10.322;2023-05-16T02:07:42;20.88;;;12.18;;
72720;SDS011;60835;50.974;10.322;2023-05-16T02:10:09;16.55;;;11.75;;
72720;SDS011;60835;50.974;10.322;2023-05-16T02:12:36;16.70;;;10.98;;
72720;SDS011;60835;50.974;10.322;2023-05-16T02:15:03;17.52;;;11.93;;
72720;SDS011;60835;50.974;10.322;2023-05-16T02:17:30;22.67;;;12.15;;
72720;SDS011;60835;50.974;10.322;2023-05-16T02:19:57;19.00;;;12.38;;
72720;SDS011;60835;50.974;10.322;2023-05-16T02:22:24;19.70;;;12.88;;
72720;SDS011;60835;50.974;10.322;2023-05-16T02:24:52;18.13;;;12.57;;
72720;SDS011;60835;50.974;10.322;2023-05-16T02:27:19;17.77;;;12.27;;
72720;SDS011;60835;50.974;10.322;2023-05-16T02:29:45;18.33;;;12.40;;
72720;SDS011;60835;50.974;10.322;2023-05-16T02:32:12;18.27;;;11.95;;
72720;SDS011;60835;50.974;10.322;2023-05-16T02:34:38;19.02;;;12.80;;
72720;SDS011;60835;50.974;10.322;2023-05-16T02:37:05;19.80;;;12.57;;
72720;SDS011;60835;50.974;10.322;2023-05-16T02:39:32;19.42;;;11.98;;
72720;SDS011;60835;50.974;10.322;2023-05-16T02:41:58;18.80;;;13.10;;
72720;SDS011;60835;50.974;10.322;2023-05-16T02:44:25;17.20;;;11.60;;
72720;SDS011;60835;50.974;10.322;2023-05-16T02:46:51;19.25;;;12.55;;
72720;SDS011;60835;50.974;10.322;2023-05-16T02:49:18;18.25;;;12.05;;
72720;SDS011;60835;50.974;10.322;2023-05-16T02:51:48;17.20;;;12.65;;
72720;SDS011;60835;50.974;10.322;2023-05-16T02:54:15;18.10;;;11.55;;
72720;SDS011;60835;50.974;10.322;2023-05-16T02:56:42;19.50;;;12.65;;
72720;SDS011;60835;50.974;10.322;2023-05-16T02:59:10;18.25;;;12.13;;
72720;SDS011;60835;50.974;10.322;2023-05-16T03:01:37;19.08;;;11.63;;
72720;SDS011;60835;50.974;10.322;2023-05-16T03:04:03;17.38;;;12.32;;
72720;SDS011;60835;50.974;10.322;2023-05-16T03:06:31;17.75;;;11.45;;
72720;SDS011;60835;50.974;10.322;2023-05-16T03:08:58;17.60;;;12.15;;
72720;SDS011;60835;50.974;10.322;2023-05-16T03:11:25;17.33;;;11.88;;
72720;SDS011;60835;50.974;10.322;2023-05-16T03:13:52;16.88;;;11.02;;
72720;SDS011;60835;50.974;10.322;2023-05-16T03:16:19;18.48;;;11.77;;
72720;SDS011;60835;50.974;10.322;2023-05-16T03:18:47;19.27;;;11.13;;
72720;SDS011;60835;50.974;10.322;2023-05-16T03:21:13;17.73;;;12.32;;
72720;SDS011;60835;50.974;10.322;2023-05-16T03:23:40;16.45;;;11.52;;
72720;SDS011;60835;50.974;10.322;2023-05-16T03:26:07;18.10;;;11.48;;
72720;SDS011;60835;50.974;10.322;2023-05-16T03:28:33;19.83;;;10.88;;
72720;SDS011;60835;50.974;10.322;2023-05-16T03:31:00;18.50;;;11.05;;
72720;SDS011;60835;50.974;10.322;2023-05-16T03:33:27;19.23;;;11.00;;
72720;SDS011;60835;50.974;10.322;2023-05-16T03:35:53;17.05;;;11.20;;
72720;SDS011;60835;50.974;10.322;2023-05-16T03:38:20;15.20;;;10.50;;
72720;SDS011;60835;50.974;10.322;2023-05-16T03:40:46;22.95;;;11.02;;
72720;SDS011;60835;50.974;10.322;2023-05-16T03:43:13;16.23;;;10.85;;
72720;SDS011;60835;50.974;10.322;2023-05-16T03:45:40;21.58;;;11.00;;
72720;SDS011;60835;50.974;10.322;2023-05-16T03:48:07;18.08;;;11.75;;
72720;SDS011;60835;50.974;10.322;2023-05-16T03:50:35;15.50;;;11.15;;
72720;SDS011;60835;50.974;10.322;2023-05-16T03:53:05;14.55;;;10.43;;
72720;SDS011;60835;50.974;10.322;2023-05-16T03:55:32;19.90;;;11.13;;
72720;SDS011;60835;50.974;10.322;2023-05-16T03:58:00;13.85;;;10.27;;
72720;SDS011;60835;50.974;10.322;2023-05-16T04:00:27;14.57;;;9.23;;
72720;SDS011;60835;50.974;10.322;2023-05-16T04:02:53;13.30;;;9.65;;
72720;SDS011;60835;50.974;10.322;2023-05-16T04:05:20;12.93;;;8.40;;
72720;SDS011;60835;50.974;10.322;2023-05-16T04:07:46;12.60;;;9.02;;
72720;SDS011;60835;50.974;10.322;2023-05-16T04:10:13;16.23;;;9.15;;
72720;SDS011;60835;50.974;10.322;2023-05-16T04:12:40;14.52;;;8.63;;
72720;SDS011;60835;50.974;10.322;2023-05-16T04:15:06;11.65;;;8.27;;
72720;SDS011;60835;50.974;10.322;2023-05-16T04:17:33;13.02;;;9.07;;
72720;SDS011;60835;50.974;10.322;2023-05-16T04:20:00;14.13;;;9.00;;
72720;SDS011;60835;50.974;10.322;2023-05-16T04:22:29;15.25;;;9.45;;
72720;SDS011;60835;50.974;10.322;2023-05-16T04:24:56;14.25;;;8.23;;
72720;SDS011;60835;50.974;10.322;2023-05-16T04:27:23;12.45;;;8.27;;
72720;SDS011;60835;50.974;10.322;2023-05-16T04:29:50;16.80;;;8.38;;
72720;SDS011;60835;50.974;10.322;2023-05-16T04:32:17;11.50;;;8.65;;
72720;SDS011;60835;50.974;10.322;2023-05-16T04:34:43;12.25;;;8.40;;
72720;SDS011;60835;50.974;10.322;2023-05-16T04:37:10;12.93;;;8.40;;
72720;SDS011;60835;50.974;10.322;2023-05-16T04:39:37;12.52;;;7.57;;
72720;SDS011;60835;50.974;10.322;2023-05-16T04:42:04;10.30;;;7.63;;
72720;SDS011;60835;50.974;10.322;2023-05-16T04:44:31;11.40;;;7.43;;
72720;SDS011;60835;50.974;10.322;2023-05-16T04:46:58;12.15;;;8.07;;
72720;SDS011;60835;50.974;10.322;2023-05-16T04:49:25;10.13;;;7.55;;
72720;SDS011;60835;50.974;10.322;2023-05-16T04:51:51;11.68;;;7.57;;
72720;SDS011;60835;50.974;10.322;2023-05-16T04:54:18;15.63;;;8.00;;
72720;SDS011;60835;50.974;10.322;2023-05-16T04:56:44;10.52;;;7.40;;
72720;SDS011;60835;50.974;10.322;2023-05-16T04:59:11;13.73;;;7.20;;
72720;SDS011;60835;50.974;10.322;2023-05-16T05:01:38;11.57;;;7.15;;
72720;SDS011;60835;50.974;10.322;2023-05-16T05:04:05;11.93;;;7.88;;
72720;SDS011;60835;50.974;10.322;2023-05-16T05:06:32;14.95;;;8.25;;
72720;SDS011;60835;50.974;10.322;2023-05-16T05:08:58;12.55;;;8.05;;
72720;SDS011;60835;50.974;10.322;2023-05-16T05:11:25;11.82;;;8.07;;
72720;SDS011;60835;50.974;10.322;2023-05-16T05:13:52;11.52;;;8.02;;
72720;SDS011;60835;50.974;10.322;2023-05-16T05:16:20;13.30;;;7.70;;
72720;SDS011;60835;50.974;10.322;2023-05-16T05:18:47;12.63;;;8.70;;
72720;SDS011;60835;50.974;10.322;2023-05-16T05:21:14;13.75;;;8.63;;
72720;SDS011;60835;50.974;10.322;2023-05-16T05:23:40;11.80;;;8.10;;
72720;SDS011;60835;50.974;10.322;2023-05-16T05:26:07;12.10;;;8.10;;
72720;SDS011;60835;50.974;10.322;2023-05-16T05:28:33;16.17;;;8.73;;
72720;SDS011;60835;50.974;10.322;2023-05-16T05:31:00;16.48;;;8.75;;
72720;SDS011;60835;50.974;10.322;2023-05-16T05:33:27;17.50;;;9.23;;
72720;SDS011;60835;50.974;10.322;2023-05-16T05:35:54;15.77;;;9.27;;
72720;SDS011;60835;50.974;10.322;2023-05-16T05:38:21;15.38;;;9.93;;
72720;SDS011;60835;50.974;10.322;2023-05-16T05:40:48;16.92;;;9.25;;
72720;SDS011;60835;50.974;10.322;2023-05-16T05:43:16;12.18;;;8.05;;
72720;SDS011;60835;50.974;10.322;2023-05-16T05:45:43;19.65;;;10.77;;
72720;SDS011;60835;50.974;10.322;2023-05-16T05:48:10;20.23;;;13.45;;
72720;SDS011;60835;50.974;10.322;2023-05-16T05:50:38;14.50;;;8.88;;
72720;SDS011;60835;50.974;10.322;2023-05-16T05:53:04;11.55;;;7.68;;
72720;SDS011;60835;50.974;10.322;2023-05-16T05:55:31;14.07;;;7.97;;
72720;SDS011;60835;50.974;10.322;2023-05-16T05:57:58;14.38;;;8.68;;
72720;SDS011;60835;50.974;10.322;2023-05-16T06:00:24;13.20;;;8.23;;
72720;SDS011;60835;50.974;10.322;2023-05-16T06:02:51;12.32;;;7.30;;
72720;SDS011;60835;50.974;10.322;2023-05-16T06:05:18;11.30;;;7.28;;
72720;SDS011;60835;50.974;10.322;2023-05-16T06:07:45;9.45;;;6.40;;
72720;SDS011;60835;50.974;10.322;2023-05-16T06:10:12;10.25;;;6.70;;
72720;SDS011;60835;50.974;10.322;2023-05-16T06:12:38;10.93;;;7.13;;
72720;SDS011;60835;50.974;10.322;2023-05-16T06:15:05;12.27;;;6.90;;
72720;SDS011;60835;50.974;10.322;2023-05-16T06:17:32;10.68;;;6.95;;
72720;SDS011;60835;50.974;10.322;2023-05-16T06:19:59;12.85;;;7.32;;
72720;SDS011;60835;50.974;10.322;2023-05-16T06:22:27;11.65;;;7.22;;
72720;SDS011;60835;50.974;10.322;2023-05-16T06:24:54;14.63;;;7.60;;
72720;SDS011;60835;50.974;10.322;2023-05-16T06:27:20;11.88;;;7.30;;
72720;SDS011;60835;50.974;10.322;2023-05-16T06:29:47;15.25;;;7.90;;
72720;SDS011;60835;50.974;10.322;2023-05-16T06:32:13;9.93;;;6.25;;
72720;SDS011;60835;50.974;10.322;2023-05-16T06:34:40;12.48;;;6.65;;
72720;SDS011;60835;50.974;10.322;2023-05-16T06:37:07;11.52;;;5.95;;
72720;SDS011;60835;50.974;10.322;2023-05-16T06:39:33;9.73;;;6.30;;
72720;SDS011;60835;50.974;10.322;2023-05-16T06:42:00;10.40;;;5.47;;
72720;SDS011;60835;50.974;10.322;2023-05-16T06:44:26;11.15;;;6.32;;
72720;SDS011;60835;50.974;10.322;2023-05-16T06:46:53;10.65;;;6.05;;
72720;SDS011;60835;50.974;10.322;2023-05-16T06:49:20;12.27;;;6.00;;
72720;SDS011;60835;50.974;10.322;2023-05-16T06:51:47;8.73;;;5.57;;
72720;SDS011;60835;50.974;10.322;2023-05-16T06:54:13;10.57;;;6.05;;
72720;SDS011;60835;50.974;10.322;2023-05-16T06:56:40;8.13;;;5.38;;
72720;SDS011;60835;50.974;10.322;2023-05-16T06:59:07;9.15;;;5.95;;
72720;SDS011;60835;50.974;10.322;2023-05-16T07:01:34;13.00;;;5.78;;
72720;SDS011;60835;50.974;10.322;2023-05-16T07:04:01;8.25;;;5.00;;
72720;SDS011;60835;50.974;10.322;2023-05-16T07:06:28;8.85;;;5.05;;
72720;SDS011;60835;50.974;10.322;2023-05-16T07:08:54;7.53;;;4.53;;
72720;SDS011;60835;50.974;10.322;2023-05-16T07:11:21;9.68;;;4.80;;
72720;SDS011;60835;50.974;10.322;2023-05-16T07:13:48;8.48;;;4.55;;
72720;SDS011;60835;50.974;10.322;2023-05-16T07:16:14;8.77;;;3.97;;
72720;SDS011;60835;50.974;10.322;2023-05-16T07:18:41;7.43;;;4.32;;
72720;SDS011;60835;50.974;10.322;2023-05-16T07:21:08;7.72;;;3.58;;
72720;SDS011;60835;50.974;10.322;2023-05-16T07:23:34;7.03;;;3.83;;
72720;SDS011;60835;50.974;10.322;2023-05-16T07:26:01;6.10;;;3.03;;
72720;SDS011;60835;50.974;10.322;2023-05-16T07:28:28;4.72;;;3.00;;
72720;SDS011;60835;50.974;10.322;2023-05-16T07:30:55;8.20;;;3.50;;
72720;SDS011;60835;50.974;10.322;2023-05-16T07:33:24;7.75;;;3.65;;
72720;SDS011;60835;50.974;10.322;2023-05-16T07:35:50;8.80;;;5.13;;
72720;SDS011;60835;50.974;10.322;2023-05-16T07:38:29;8.73;;;3.05;;
72720;SDS011;60835;50.974;10.322;2023-05-16T07:40:56;6.22;;;3.10;;
72720;SDS011;60835;50.974;10.322;2023-05-16T07:43:22;4.63;;;2.92;;
72720;SDS011;60835;50.974;10.322;2023-05-16T07:45:49;2.72;;;2.47;;
72720;SDS011;60835;50.974;10.322;2023-05-16T07:48:16;4.03;;;2.40;;
72720;SDS011;60835;50.974;10.322;2023-05-16T07:50:42;4.25;;;2.42;;
72720;SDS011;60835;50.974;10.322;2023-05-16T07:53:09;6.85;;;4.60;;
72720;SDS011;60835;50.974;10.322;2023-05-16T07:55:36;11.18;;;4.20;;
72720;SDS011;60835;50.974;10.322;2023-05-16T07:58:03;4.85;;;2.67;;
72720;SDS011;60835;50.974;10.322;2023-05-16T08:00:29;6.93;;;3.15;;
72720;SDS011;60835;50.974;10.322;2023-05-16T08:02:56;8.15;;;2.42;;
72720;SDS011;60835;50.974;10.322;2023-05-16T08:05:23;7.20;;;3.05;;
72720;SDS011;60835;50.974;10.322;2023-05-16T08:07:50;4.85;;;2.83;;
72720;SDS011;60835;50.974;10.322;2023-05-16T08:10:17;4.00;;;2.58;;
72720;SDS011;60835;50.974;10.322;2023-05-16T08:12:43;6.07;;;2.95;;
72720;SDS011;60835;50.974;10.322;2023-05-16T08:15:11;7.05;;;2.33;;
72720;SDS011;60835;50.974;10.322;2023-05-16T08:17:38;4.90;;;2.22;;
72720;SDS011;60835;50.974;10.322;2023-05-16T08:20:05;6.07;;;2.17;;
72720;SDS011;60835;50.974;10.322;2023-05-16T08:22:33;8.75;;;2.45;;
72720;SDS011;60835;50.974;10.322;2023-05-16T08:24:59;4.38;;;2.50;;
72720;SDS011;60835;50.974;10.322;2023-05-16T08:27:26;7.88;;;2.67;;
72720;SDS011;60835;50.974;10.322;2023-05-16T08:29:53;6.57;;;2.40;;
72720;SDS011;60835;50.974;10.322;2023-05-16T08:32:22;5.90;;;1.98;;
72720;SDS011;60835;50.974;10.322;2023-05-16T08:34:51;6.30;;;1.95;;
72720;SDS011;60835;50.974;10.322;2023-05-16T08:37:18;6.70;;;3.05;;
72720;SDS011;60835;50.974;10.322;2023-05-16T08:39:44;7.25;;;2.83;;
72720;SDS011;60835;50.974;10.322;2023-05-16T08:42:11;5.15;;;2.03;;
72720;SDS011;60835;50.974;10.322;2023-05-16T08:44:38;4.93;;;2.22;;
72720;SDS011;60835;50.974;10.322;2023-05-16T08:47:12;7.13;;;1.83;;
72720;SDS011;60835;50.974;10.322;2023-05-16T08:49:45;6.45;;;2.55;;
72720;SDS011;60835;50.974;10.322;2023-05-16T08:52:13;4.88;;;2.20;;
72720;SDS011;60835;50.974;10.322;2023-05-16T08:54:44;5.93;;;2.03;;
72720;SDS011;60835;50.974;10.322;2023-05-16T08:57:20;6.65;;;2.00;;
72720;SDS011;60835;50.974;10.322;2023-05-16T08:59:47;2.53;;;1.60;;
72720;SDS011;60835;50.974;10.322;2023-05-16T09:02:14;2.80;;;1.73;;
72720;SDS011;60835;50.974;10.322;2023-05-16T09:04:42;5.28;;;1.70;;
72720;SDS011;60835;50.974;10.322;2023-05-16T09:07:11;2.92;;;1.52;;
72720;SDS011;60835;50.974;10.322;2023-05-16T09:09:37;4.80;;;1.58;;
72720;SDS011;60835;50.974;10.322;2023-05-16T09:12:04;5.25;;;1.80;;
72720;SDS011;60835;50.974;10.322;2023-05-16T09:14:31;6.32;;;1.58;;
72720;SDS011;60835;50.974;10.322;2023-05-16T09:17:08;6.13;;;2.25;;
72720;SDS011;60835;50.974;10.322;2023-05-16T09:19:41;7.85;;;2.22;;
72720;SDS011;60835;50.974;10.322;2023-05-16T09:22:10;5.03;;;1.92;;
72720;SDS011;60835;50.974;10.322;2023-05-16T09:24:41;5.70;;;1.73;;
72720;SDS011;60835;50.974;10.322;2023-05-16T09:27:10;5.43;;;1.70;;
72720;SDS011;60835;50.974;10.322;2023-05-16T09:29:49;6.85;;;1.67;;
72720;SDS011;60835;50.974;10.322;2023-05-16T09:32:17;2.45;;;1.20;;
72720;SDS011;60835;50.974;10.322;2023-05-16T09:34:47;12.00;;;2.20;;
72720;SDS011;60835;50.974;10.322;2023-05-16T09:37:14;6.43;;;2.28;;
72720;SDS011;60835;50.974;10.322;2023-05-16T09:39:44;8.20;;;2.20;;
72720;SDS011;60835;50.974;10.322;2023-05-16T09:42:19;8.95;;;2.25;;
72720;SDS011;60835;50.974;10.322;2023-05-16T09:44:50;13.63;;;3.47;;
72720;SDS011;60835;50.974;10.322;2023-05-16T09:49:51;8.23;;;2.80;;
72720;SDS011;60835;50.974;10.322;2023-05-16T09:52:18;15.32;;;2.88;;
72720;SDS011;60835;50.974;10.322;2023-05-16T09:54:45;8.93;;;2.47;;
72720;SDS011;60835;50.974;10.322;2023-05-16T09:57:18;9.43;;;2.10;;
72720;SDS011;60835;50.974;10.322;2023-05-16T10:02:15;13.80;;;2.47;;
72720;SDS011;60835;50.974;10.322;2023-05-16T10:04:42;6.72;;;2.03;;
72720;SDS011;60835;50.974;10.322;2023-05-16T10:07:08;10.48;;;2.28;;
72720;SDS011;60835;50.974;10.322;2023-05-16T10:09:36;7.50;;;2.28;;
72720;SDS011;60835;50.974;10.322;2023-05-16T10:12:05;9.85;;;2.75;;
72720;SDS011;60835;50.974;10.322;2023-05-16T10:14:37;12.98;;;2.83;;
72720;SDS011;60835;50.974;10.322;2023-05-16T10:17:07;4.60;;;1.90;;
72720;SDS011;60835;50.974;10.322;2023-05-16T10:19:39;5.60;;;2.05;;
72720;SDS011;60835;50.974;10.322;2023-05-16T10:22:07;8.20;;;1.80;;
72720;SDS011;60835;50.974;10.322;2023-05-16T10:27:14;8.35;;;2.17;;
72720;SDS011;60835;50.974;10.322;2023-05-16T10:29:44;4.38;;;1.95;;
72720;SDS011;60835;50.974;10.322;2023-05-16T10:32:21;7.13;;;2.20;;
72720;SDS011;60835;50.974;10.322;2023-05-16T10:34:49;7.40;;;2.50;;
72720;SDS011;60835;50.974;10.322;2023-05-16T10:37:16;6.97;;;1.80;;
72720;SDS011;60835;50.974;10.322;2023-05-16T10:39:43;5.93;;;2.20;;
72720;SDS011;60835;50.974;10.322;2023-05-16T10:42:10;7.88;;;2.03;;
72720;SDS011;60835;50.974;10.322;2023-05-16T10:44:39;7.40;;;2.33;;
72720;SDS011;60835;50.974;10.322;2023-05-16T10:47:19;11.77;;;3.22;;
72720;SDS011;60835;50.974;10.322;2023-05-16T10:49:46;7.25;;;2.30;;
72720;SDS011;60835;50.974;10.322;2023-05-16T10:52:13;6.43;;;2.00;;
72720;SDS011;60835;50.974;10.322;2023-05-16T10:54:45;8.63;;;2.28;;
72720;SDS011;60835;50.974;10.322;2023-05-16T10:57:18;5.10;;;1.95;;
72720;SDS011;60835;50.974;10.322;2023-05-16T10:59:49;7.05;;;1.80;;
72720;SDS011;60835;50.974;10.322;2023-05-16T11:02:27;7.15;;;2.08;;
72720;SDS011;60835;50.974;10.322;2023-05-16T11:04:56;6.60;;;2.10;;
72720;SDS011;60835;50.974;10.322;2023-05-16T11:07:25;8.23;;;1.92;;
72720;SDS011;60835;50.974;10.322;2023-05-16T11:10:15;7.85;;;2.53;;
72720;SDS011;60835;50.974;10.322;2023-05-16T11:15:25;6.05;;;1.60;;
72720;SDS011;60835;50.974;10.322;2023-05-16T11:18:07;9.98;;;2.33;;
72720;SDS011;60835;50.974;10.322;2023-05-16T11:20:38;5.55;;;1.60;;
72720;SDS011;60835;50.974;10.322;2023-05-16T11:25:44;15.27;;;5.00;;
72720;SDS011;60835;50.974;10.322;2023-05-16T11:28:14;4.50;;;1.88;;
72720;SDS011;60835;50.974;10.322;2023-05-16T11:30:47;5.88;;;1.88;;
72720;SDS011;60835;50.974;10.322;2023-05-16T11:33:16;8.05;;;1.80;;
72720;SDS011;60835;50.974;10.322;2023-05-16T11:35:43;8.40;;;2.00;;
72720;SDS011;60835;50.974;10.322;2023-05-16T11:38:40;8.82;;;1.95;;
72720;SDS011;60835;50.974;10.322;2023-05-16T11:41:09;7.63;;;1.67;;
72720;SDS011;60835;50.974;10.322;2023-05-16T11:43:45;5.18;;;1.50;;
72720;SDS011;60835;50.974;10.322;2023-05-16T11:46:12;9.80;;;1.85;;
72720;SDS011;60835;50.974;10.322;2023-05-16T11:48:40;4.85;;;1.85;;
72720;SDS011;60835;50.974;10.322;2023-05-16T11:51:08;6.80;;;3.10;;
72720;SDS011;60835;50.974;10.322;2023-05-16T11:53:35;6.63;;;1.80;;
72720;SDS011;60835;50.974;10.322;2023-05-16T11:56:03;6.50;;;1.77;;
72720;SDS011;60835;50.974;10.322;2023-05-16T11:58:33;8.60;;;1.77;;
72720;SDS011;60835;50.974;10.322;2023-05-16T12:01:00;4.47;;;1.67;;
72720;SDS011;60835;50.974;10.322;2023-05-16T12:03:33;7.85;;;1.92;;
72720;SDS011;60835;50.974;10.322;2023-05-16T12:06:02;6.10;;;1.42;;
72720;SDS011;60835;50.974;10.322;2023-05-16T12:08:29;8.98;;;4.35;;
72720;SDS011;60835;50.974;10.322;2023-05-16T12:10:56;9.00;;;2.90;;
72720;SDS011;60835;50.974;10.322;2023-05-16T12:13:23;6.60;;;1.58;;
72720;SDS011;60835;50.974;10.322;2023-05-16T12:15:50;4.90;;;1.35;;
72720;SDS011;60835;50.974;10.322;2023-05-16T12:18:18;9.15;;;1.95;;
72720;SDS011;60835;50.974;10.322;2023-05-16T12:20:47;4.85;;;1.92;;
72720;SDS011;60835;50.974;10.322;2023-05-16T12:23:13;5.78;;;1.60;;
72720;SDS011;60835;50.974;10.322;2023-05-16T12:25:46;8.27;;;1.80;;
72720;SDS011;60835;50.974;10.322;2023-05-16T12:28:14;15.73;;;6.55;;
72720;SDS011;60835;50.974;10.322;2023-05-16T12:30:42;7.25;;;1.67;;
72720;SDS011;60835;50.974;10.322;2023-05-16T12:33:11;4.90;;;1.80;;
72720;SDS011;60835;50.974;10.322;2023-05-16T12:40:58;4.90;;;1.30;;
72720;SDS011;60835;50.974;10.322;2023-05-16T12:43:25;9.30;;;1.80;;
72720;SDS011;60835;50.974;10.322;2023-05-16T12:45:53;8.05;;;1.80;;
72720;SDS011;60835;50.974;10.322;2023-05-16T12:48:22;5.13;;;1.70;;
72720;SDS011;60835;50.974;10.322;2023-05-16T12:50:55;4.65;;;1.73;;
72720;SDS011;60835;50.974;10.322;2023-05-16T12:53:22;4.65;;;1.30;;
72720;SDS011;60835;50.974;10.322;2023-05-16T12:55:49;9.15;;;1.58;;
72720;SDS011;60835;50.974;10.322;2023-05-16T12:58:16;6.22;;;1.25;;
72720;SDS011;60835;50.974;10.322;2023-05-16T13:00:43;9.63;;;1.85;;
72720;SDS011;60835;50.974;10.322;2023-05-16T13:03:09;10.18;;;1.95;;
72720;SDS011;60835;50.974;10.322;2023-05-16T13:05:37;5.65;;;1.70;;
72720;SDS011;60835;50.974;10.322;2023-05-16T13:08:04;3.30;;;1.25;;
72720;SDS011;60835;50.974;10.322;2023-05-16T13:10:31;2.80;;;1.20;;
72720;SDS011;60835;50.974;10.322;2023-05-16T13:12:57;4.88;;;1.83;;
72720;SDS011;60835;50.974;10.322;2023-05-16T13:15:26;7.45;;;1.58;;
72720;SDS011;60835;50.974;10.322;2023-05-16T13:17:55;4.97;;;1.60;;
72720;SDS011;60835;50.974;10.322;2023-05-16T13:20:22;4.95;;;1.50;;
72720;SDS011;60835;50.974;10.322;2023-05-16T13:22:51;8.27;;;1.88;;
72720;SDS011;60835;50.974;10.322;2023-05-16T13:25:17;7.47;;;1.65;;
72720;SDS011;60835;50.974;10.322;2023-05-16T13:27:44;6.40;;;1.48;;
72720;SDS011;60835;50.974;10.322;2023-05-16T13:30:11;9.23;;;2.67;;
72720;SDS011;60835;50.974;10.322;2023-05-16T13:32:39;5.25;;;1.60;;
72720;SDS011;60835;50.974;10.322;2023-05-16T13:35:05;8.27;;;1.90;;
72720;SDS011;60835;50.974;10.322;2023-05-16T13:37:32;5.68;;;1.45;;
72720;SDS011;60835;50.974;10.322;2023-05-16T13:39:59;4.88;;;1.00;;
72720;SDS011;60835;50.974;10.322;2023-05-16T13:42:26;4.18;;;1.27;;
72720;SDS011;60835;50.974;10.322;2023-05-16T13:44:53;4.03;;;1.48;;
72720;SDS011;60835;50.974;10.322;2023-05-16T13:47:19;8.20;;;2.65;;
72720;SDS011;60835;50.974;10.322;2023-05-16T13:49:46;5.95;;;1.33;;
72720;SDS011;60835;50.974;10.322;2023-05-16T13:52:13;6.07;;;1.40;;
72720;SDS011;60835;50.974;10.322;2023-05-16T13:54:40;6.03;;;1.33;;
72720;SDS011;60835;50.974;10.322;2023-05-16T13:57:10;3.55;;;1.52;;
72720;SDS011;60835;50.974;10.322;2023-05-16T13:59:37;3.67;;;1.85;;
72720;SDS011;60835;50.974;10.322;2023-05-16T14:02:24;6.57;;;1.30;;
72720;SDS011;60835;50.974;10.322;2023-05-16T14:04:51;5.25;;;1.17;;
72720;SDS011;60835;50.974;10.322;2023-05-16T14:07:19;4.32;;;1.15;;
72720;SDS011;60835;50.974;10.322;2023-05-16T14:09:49;7.18;;;1.52;;
72720;SDS011;60835;50.974;10.322;2023-05-16T14:12:16;5.03;;;1.02;;
72720;SDS011;60835;50.974;10.322;2023-05-16T14:14:43;8.90;;;1.52;;
72720;SDS011;60835;50.974;10.322;2023-05-16T14:17:10;6.68;;;1.10;;
72720;SDS011;60835;50.974;10.322;2023-05-16T14:19:37;6.85;;;1.25;;
72720;SDS011;60835;50.974;10.322;2023-05-16T14:22:07;9.27;;;1.83;;
72720;SDS011;60835;50.974;10.322;2023-05-16T14:24:33;6.75;;;1.52;;
72720;SDS011;60835;50.974;10.322;2023-05-16T14:27:00;7.35;;;1.30;;
72720;SDS011;60835;50.974;10.322;2023-05-16T14:29:28;9.80;;;1.50;;
72720;SDS011;60835;50.974;10.322;2023-05-16T14:31:55;4.57;;;1.23;;
72720;SDS011;60835;50.974;10.322;2023-05-16T14:34:22;5.78;;;2.35;;
72720;SDS011;60835;50.974;10.322;2023-05-16T14:36:49;12.73;;;4.95;;
72720;SDS011;60835;50.974;10.322;2023-05-16T14:39:18;8.25;;;2.17;;
72720;SDS011;60835;50.974;10.322;2023-05-16T14:41:46;5.38;;;1.60;;
72720;SDS011;60835;50.974;10.322;2023-05-16T14:44:12;5.20;;;1.20;;
72720;SDS011;60835;50.974;10.322;2023-05-16T14:46:39;6.28;;;1.30;;
72720;SDS011;60835;50.974;10.322;2023-05-16T14:49:06;5.88;;;1.10;;
72720;SDS011;60835;50.974;10.322;2023-05-16T14:51:34;10.23;;;1.70;;
72720;SDS011;60835;50.974;10.322;2023-05-16T14:54:00;5.38;;;1.40;;
72720;SDS011;60835;50.974;10.322;2023-05-16T14:56:27;6.55;;;1.42;;
72720;SDS011;60835;50.974;10.322;2023-05-16T14:58:54;7.45;;;1.60;;
72720;SDS011;60835;50.974;10.322;2023-05-16T15:01:20;4.57;;;1.38;;